Latest Weather Observations for Bankstown

IDN60801

Issued at 2:43 pm EDT Tuesday 18 January 2022 (issued every 10 minutes, with the page automatically refreshed every 10 minutes)

About weather observations | Map of weather stations | Latest weather observations for NSW | Other Formats
Station Details ID: 066137 Name: BANKSTOWN AIRPORT AWS Lat: -33.92 Lon: 150.98 Height: 7.2 m
Data from the previous 72 hours. | See also: Recent months at Bankstown
Date/Time
EDT
Temp
°C
App
Temp
°C
Dew
Point
°C
Rel
Hum
%
Delta-T
°C
Wind Press
QNH
hPa
Press
MSL
hPa
Rain since
9am
mm
Dir  Spd
km/h
Gust
km/h
Spd
kts
Gust
kts
18/02:30pm 23.6 22.3 19.9 80 2.4 SE 26 30 14 16 1012.6 1012.6 0.8
18/02:00pm 23.6 24.1 20.1 81 2.3 SSE 17 22 9 12 1013.1 1013.1 0.8
18/01:30pm 23.8 24.4 20.3 81 2.3 SSE 17 22 9 12 1013.3 1013.3 0.8
18/01:00pm 23.4 24.6 20.0 81 2.2 S 13 15 7 8 1013.5 1013.5 0.8
18/12:48pm 23.3 24.6 20.1 82 2.1 S 13 17 7 9 1013.5 1013.5 0.8
18/12:38pm 23.4 25.2 20.3 83 2.0 S 11 17 6 9 1013.5 1013.5 0.8
18/12:30pm 23.5 24.9 20.4 83 2.0 S 13 17 7 9 1013.5 1013.5 0.8
18/12:00pm 23.6 24.2 20.3 82 2.1 S 17 22 9 12 1013.7 1013.7 0.8
18/11:30am 23.1 23.9 19.9 82 2.1 SSE 15 19 8 10 1013.8 1013.8 0.8
18/11:00am 23.0 25.2 20.3 85 1.7 S 9 13 5 7 1013.5 1013.5 0.6
18/10:30am 23.0 25.0 20.0 83 1.9 SSW 9 13 5 7 1013.6 1013.6 0.2
18/10:00am 23.4 25.0 20.0 81 2.2 SSW 11 15 6 8 1013.6 1013.6 0.0
18/09:30am 24.1 24.1 19.8 77 2.8 S 19 26 10 14 1013.3 1013.3 0.0
18/09:00am 24.1 24.1 19.8 77 2.8 SSE 19 24 10 13 1013.1 1013.1 0.0
18/08:49am 24.0 24.1 19.9 78 2.6 S 19 30 10 16 1013.0 1013.0 0.0
18/08:30am 23.8 23.8 19.7 78 2.6 S 19 26 10 14 1012.6 1012.6 0.0
18/08:00am 23.6 24.5 20.1 81 2.3 S 15 20 8 11 1012.1 1012.1 0.0
18/07:30am 23.6 24.5 20.1 81 2.3 S 15 19 8 10 1011.7 1011.7 0.0
18/07:01am 23.3 25.0 20.1 82 2.1 S 11 17 6 9 1011.3 1011.3 0.0
18/07:00am 23.3 24.6 20.1 82 2.1 S 13 17 7 9 1011.3 1011.3 0.0
18/06:48am 23.1 24.0 20.1 83 1.9 S 15 20 8 11 1011.2 1011.2 0.0
18/06:30am 23.1 24.4 20.1 83 1.9 S 13 19 7 10 1011.0 1011.0 0.0
18/06:12am 23.1 24.4 20.1 83 1.9 SSE 13 19 7 10 1010.7 1010.7 0.0
18/06:00am 22.9 24.2 20.1 84 1.8 SSE 13 15 7 8 1010.5 1010.5 0.0
18/05:30am 23.1 23.7 19.5 80 2.3 S 15 22 8 12 1010.2 1010.2 0.0
18/05:00am 23.9 23.9 19.0 74 3.1 SSE 17 20 9 11 1009.8 1009.8 0.0
18/04:30am 23.6 27.0 20.1 81 2.3 SSE 2 7 1 4 1009.4 1009.4 0.0
18/04:00am 24.0 28.2 20.9 83 2.0 CALM 0 0 0 0 1009.6 1009.6 0.0
18/03:30am 24.3 28.8 21.6 85 1.8 CALM 0 0 0 0 1010.0 1010.0 0.0
18/03:00am 24.3 28.6 21.2 83 2.0 CALM 0 0 0 0 1010.0 1010.0 0.0
18/02:58am 24.3 28.7 21.4 84 1.9 CALM 0 0 0 0 1010.0 1010.0 0.0
18/02:35am 24.4 28.9 21.5 84 1.9 CALM 0 0 0 0 1010.3 1010.3 0.0
18/02:30am 24.5 28.9 21.4 83 2.0 CALM 0 0 0 0 1010.4 1010.4 0.0
18/02:00am 24.8 29.3 21.5 82 2.2 CALM 0 0 0 0 1010.6 1010.6 0.0
18/01:30am 24.7 28.0 21.4 82 2.2 SSE 6 9 3 5 1010.8 1010.8 0.0
18/01:00am 25.2 29.7 21.5 80 2.5 CALM 0 9 0 5 1010.5 1010.5 0.0
18/12:30am 25.2 29.7 21.5 80 2.5 CALM 0 0 0 0 1011.0 1011.0 0.0
18/12:00am 25.1 29.5 21.4 80 2.4 CALM 0 0 0 0 1011.1 1011.1 0.0
 
Date/Time
EDT
Temp
°C
App
Temp
°C
Dew
Point
°C
Rel
Hum
%
Delta-T
°C
Wind Press
QNH
hPa
Press
MSL
hPa
Rain since
9am
mm
Dir  Spd
km/h
Gust
km/h
Spd
kts
Gust
kts
17/11:30pm 25.1 29.6 21.6 81 2.3 CALM 0 0 0 0 1011.2 1011.2 0.0
17/11:00pm 25.2 29.1 21.1 78 2.7 NE 2 7 1 4 1011.2 1011.2 0.0
17/10:30pm 25.1 29.4 21.2 79 2.6 CALM 0 0 0 0 1011.3 1011.3 0.0
17/10:00pm 26.3 30.3 20.6 71 3.7 CALM 0 6 0 3 1011.0 1011.0 0.0
17/09:30pm 26.3 30.4 20.8 71 3.6 CALM 0 0 0 0 1011.0 1011.0 0.0
17/09:00pm 26.5 28.8 20.6 70 3.9 NE 9 9 5 5 1010.9 1010.9 0.0
17/08:30pm 26.6 28.8 20.4 68 4.1 ENE 9 9 5 5 1010.7 1010.7 0.0
17/08:00pm 26.9 29.4 21.0 70 3.9 NE 9 13 5 7 1010.4 1010.4 0.0
17/07:30pm 27.1 29.4 20.7 68 4.2 ENE 9 11 5 6 1010.1 1010.1 0.0
17/07:00pm 27.3 29.2 20.6 67 4.4 E 11 15 6 8 1009.6 1009.6 0.0
17/06:30pm 27.8 29.0 20.6 65 4.7 ENE 15 20 8 11 1008.8 1008.8 0.0
17/06:00pm 28.1 29.0 20.1 61 5.2 ENE 15 19 8 10 1008.4 1008.4 0.0
17/05:30pm 28.6 29.9 20.9 63 5.1 E 15 20 8 11 1008.3 1008.3 0.0
17/05:00pm 29.1 30.0 20.8 61 5.5 ENE 17 26 9 14 1008.0 1008.0 0.0
17/04:30pm 29.2 30.0 20.6 59 5.7 ENE 17 22 9 12 1008.1 1008.1 0.0
17/04:00pm 29.7 30.3 21.1 60 5.7 E 19 24 10 13 1008.1 1008.1 0.0
17/03:30pm 30.0 30.3 20.5 56 6.3 E 19 26 10 14 1008.1 1008.1 0.0
17/03:00pm 31.4 32.4 21.0 54 7.0 SE 17 24 9 13 1008.0 1008.0 0.0
17/02:30pm 32.3 34.5 19.2 46 8.6 WSW 6 11 3 6 1008.1 1008.1 0.0
17/02:00pm 32.2 34.7 19.8 48 8.2 W 6 13 3 7 1008.4 1008.4 0.0
17/01:30pm 31.1 32.6 18.8 48 8.0 NW 9 15 5 8 1008.7 1008.7 0.0
17/01:00pm 30.3 32.4 20.2 54 6.7 W 9 15 5 8 1009.2 1009.2 0.0
17/12:30pm 29.7 31.9 20.3 57 6.2 WNW 9 17 5 9 1009.6 1009.6 0.0
17/12:00pm 29.1 31.5 20.0 58 6.0 NNE 7 17 4 9 1009.9 1009.9 0.0
17/11:30am 28.3 30.1 19.5 59 5.7 N 9 17 5 9 1010.2 1010.2 0.0
17/11:00am 27.7 29.6 20.5 65 4.7 NW 11 17 6 9 1010.3 1010.3 0.0
17/10:30am 26.9 29.3 20.0 66 4.5 N 7 17 4 9 1010.7 1010.7 0.0
17/10:00am 25.9 27.8 19.8 69 4.0 N 9 13 5 7 1010.7 1010.7 0.0
17/09:30am 25.4 27.6 19.5 70 3.8 NNW 7 13 4 7 1010.6 1010.6 0.0
17/09:00am 24.8 26.9 19.4 72 3.5 WNW 7 15 4 8 1011.0 1011.0 0.0
17/08:30am 23.8 26.2 19.7 78 2.6 WNW 6 11 3 6 1011.0 1011.0 0.0
17/08:00am 22.8 26.3 19.6 82 2.0 CALM 0 0 0 0 1010.9 1010.9 0.0
17/07:30am 22.5 24.6 19.3 82 2.0 W 7 9 4 5 1010.9 1010.9 0.0
17/07:00am 21.7 25.3 19.8 89 1.2 CALM 0 0 0 0 1011.0 1011.0 0.0
17/06:30am 20.7 24.0 19.2 91 0.9 CALM 0 0 0 0 1009.2 1009.2 0.0
17/06:00am 20.6 23.8 18.9 90 1.1 CALM 0 0 0 0 1009.8 1009.8 0.0
17/05:30am 20.9 24.2 19.0 89 1.2 CALM 0 0 0 0 1009.7 1009.7 0.0
17/05:00am 21.3 24.6 19.0 87 1.5 CALM 0 2 0 1 1009.9 1009.9 0.0
17/04:30am 21.8 24.4 19.2 85 1.6 SW 4 7 2 4 1009.8 1009.8 0.0
17/04:00am 22.1 25.6 19.6 86 1.6 CALM 0 0 0 0 1009.8 1009.8 0.0
17/03:30am 22.2 25.3 19.6 85 1.7 S 2 9 1 5 1010.2 1010.2 0.0
17/03:00am 22.5 24.8 19.5 83 1.9 SSE 6 9 3 5 1010.1 1010.1 0.0
17/02:30am 22.8 26.4 19.8 83 1.9 CALM 0 0 0 0 1010.4 1010.4 0.0
17/02:00am 22.9 26.6 19.9 83 1.9 CALM 0 0 0 0 1010.9 1010.9 0.0
17/01:30am 22.8 26.6 20.1 85 1.7 CALM 0 0 0 0 1011.2 1011.2 0.0
17/01:07am 22.7 26.4 19.9 84 1.8 CALM 0 0 0 0 1011.2 1011.2 0.0
17/01:00am 22.7 26.4 19.9 84 1.8 CALM 0 0 0 0 1011.1 1011.1 0.0
17/12:30am 22.6 26.2 19.8 84 1.8 CALM 0 0 0 0 1011.0 1011.0 0.0
17/12:00am 22.6 25.5 19.8 84 1.8 SSW 4 7 2 4 1010.7 1010.7 0.0
 
Date/Time
EDT
Temp
°C
App
Temp
°C
Dew
Point
°C
Rel
Hum
%
Delta-T
°C
Wind Press
QNH
hPa
Press
MSL
hPa
Rain since
9am
mm
Dir  Spd
km/h
Gust
km/h
Spd
kts
Gust
kts
16/11:30pm 22.7 25.3 20.0 85 1.7 SW 6 11 3 6 1011.3 1011.3 0.0
16/11:00pm 22.7 25.4 20.2 86 1.6 S 6 9 3 5 1011.4 1011.4 0.0
16/10:50pm 22.4 24.9 19.9 86 1.6 S 6 7 3 4 1011.1 1011.1 0.0
16/10:30pm 22.5 24.9 20.0 86 1.6 SSW 7 11 4 6 1011.1 1011.1 0.0
16/10:00pm 22.6 24.9 19.9 85 1.7 SW 7 9 4 5 1011.1 1011.1 0.0
16/09:30pm 23.1 25.4 19.9 82 2.1 S 7 9 4 5 1010.6 1010.6 0.0
16/09:00pm 23.4 24.9 19.8 80 2.3 S 11 15 6 8 1010.3 1010.3 0.0
16/08:30pm 23.9 25.1 19.8 78 2.6 SSE 13 17 7 9 1009.7 1009.7 0.0
16/08:00pm 24.3 24.7 19.8 76 2.9 SE 17 22 9 12 1009.3 1009.3 0.0
16/07:30pm 25.0 25.0 19.8 73 3.4 SE 19 24 10 13 1009.0 1009.0 0.0
16/07:00pm 25.2 24.2 19.6 71 3.6 SE 24 33 13 18 1008.7 1008.7 0.0
16/06:30pm 25.6 23.9 19.7 70 3.8 SE 28 33 15 18 1008.3 1008.3 0.0
16/06:00pm 25.8 23.9 19.4 67 4.1 ESE 28 35 15 19 1008.1 1008.1 0.0
16/05:30pm 26.9 26.0 19.8 65 4.6 ESE 24 32 13 17 1007.7 1007.7 0.0
16/05:00pm 27.9 27.2 20.2 63 5.1 SE 24 32 13 17 1007.4 1007.4 0.0
16/04:30pm 28.6 29.0 19.8 59 5.7 SE 17 22 9 12 1007.4 1007.4 0.0
16/04:00pm 28.8 29.5 19.7 58 6.0 SSE 15 22 8 12 1007.5 1007.5 0.0
16/03:30pm 28.4 28.7 19.6 59 5.7 ESE 17 26 9 14 1007.5 1007.5 0.0
16/03:00pm 28.5 28.6 19.2 57 6.0 SE 17 22 9 12 1007.7 1007.7 0.0
16/02:30pm 28.5 28.3 18.6 55 6.4 SE 17 26 9 14 1008.0 1008.0 0.0
16/02:00pm 27.6 27.7 19.9 63 5.0 SE 19 26 10 14 1008.2 1008.2 0.0
16/01:30pm 28.2 27.8 20.2 62 5.2 SE 22 32 12 17 1008.5 1008.5 0.0
16/01:00pm 27.6 27.8 19.4 61 5.3 S 17 24 9 13 1008.7 1008.7 0.0
16/12:30pm 27.9 28.0 19.9 61 5.2 SE 19 26 10 14 1008.6 1008.6 0.0
16/12:00pm 27.0 28.1 19.6 64 4.8 ESE 13 17 7 9 1008.7 1008.7 0.0
16/11:30am 26.9 29.6 20.3 67 4.3 SSW 6 11 3 6 1008.6 1008.6 0.0
16/11:00am 26.9 29.1 20.3 67 4.3 WSW 9 11 5 6 1008.4 1008.4 0.0
16/10:30am 27.0 29.2 20.3 66 4.4 SW 9 11 5 6 1008.5 1008.5 0.0
16/10:00am 26.3 28.7 20.8 71 3.6 WSW 9 15 5 8 1008.6 1008.6 0.0
16/09:30am 25.7 27.7 20.0 71 3.7 WSW 9 13 5 7 1008.5 1008.5 0.0
16/09:00am 24.8 26.9 20.1 75 3.1 SW 9 15 5 8 1008.3 1008.3 0.0
16/08:30am 23.6 24.9 19.3 77 2.7 SW 11 15 6 8 1008.5 1008.5 0.0
16/08:00am 23.1 25.0 19.7 81 2.2 WSW 9 11 5 6 1008.4 1008.4 0.0
16/07:44am 22.9 24.9 19.9 83 1.9 WSW 9 11 5 6 1008.3 1008.3 0.0
16/07:30am 22.6 24.7 20.1 86 1.6 WSW 9 13 5 7 1008.2 1008.2 0.0
16/07:00am 22.1 24.4 19.8 87 1.5 SW 7 11 4 6 1007.8 1007.8 0.0
16/06:30am 21.9 24.9 20.0 89 1.2 SSW 4 9 2 5 1007.5 1007.5 0.0
16/06:02am 21.7 24.3 20.0 90 1.1 SSW 6 9 3 5 1006.9 1006.9 0.0
16/06:00am 21.5 24.4 19.8 90 1.1 SW 4 9 2 5 1006.8 1006.8 0.0
16/05:30am 21.5 23.2 19.4 88 1.3 SSE 9 11 5 6 1006.1 1006.1 0.0
16/05:02am 21.9 23.7 19.6 87 1.5 SSE 9 15 5 8 1005.7 1005.7 0.0
16/05:00am 22.0 23.9 19.7 87 1.5 SSE 9 15 5 8 1005.7 1005.7 0.0
16/04:30am 22.2 23.3 19.7 86 1.6 SSE 13 19 7 10 1005.3 1005.3 0.0
16/04:21am 22.2 23.3 19.7 86 1.6 SE 13 19 7 10 1005.2 1005.2 0.0
16/04:00am 22.3 23.1 19.8 86 1.6 SE 15 26 8 14 1004.8 1004.8 0.0
16/03:30am 22.6 23.0 19.9 85 1.7 SE 17 22 9 12 1004.5 1004.5 0.0
16/03:00am 21.5 24.4 19.8 90 1.1 S 4 9 2 5 1004.6 1004.6 0.0
16/02:30am 21.5 23.4 19.8 90 1.1 SE 9 13 5 7 1004.6 1004.6 0.0
16/02:00am 21.5 25.0 19.6 89 1.2 CALM 0 0 0 0 1004.6 1004.6 0.0
16/01:30am 22.0 25.6 19.7 87 1.5 CALM 0 0 0 0 1004.3 1004.3 0.0
16/01:00am 22.4 26.1 19.9 86 1.6 CALM 0 0 0 0 1004.6 1004.6 0.0
16/12:30am 22.5 25.4 19.9 85 1.7 NE 4 7 2 4 1004.7 1004.7 0.0
16/12:00am 23.2 25.7 20.3 84 1.9 NNE 7 13 4 7 1004.7 1004.7 0.0
 
Date/Time
EDT
Temp
°C
App
Temp
°C
Dew
Point
°C
Rel
Hum
%
Delta-T
°C
Wind Press
QNH
hPa
Press
MSL
hPa
Rain since
9am
mm
Dir  Spd
km/h
Gust
km/h
Spd
kts
Gust
kts
15/11:30pm 23.2 26.5 20.0 82 2.1 SSW 2 7 1 4 1004.6 1004.6 0.0
15/11:00pm 23.5 26.4 19.8 80 2.4 W 4 9 2 5 1004.6 1004.6 0.0
15/10:30pm 24.2 26.7 19.9 77 2.8 NW 6 9 3 5 1004.4 1004.4 0.0
15/10:00pm 24.5 26.7 19.6 74 3.2 WSW 7 9 4 5 1004.9 1004.9 0.0
15/09:30pm 25.1 28.7 19.7 72 3.5 CALM 0 0 0 0 1004.2 1004.2 0.0
15/09:00pm 26.1 29.6 19.5 67 4.3 CALM 0 0 0 0 1004.1 1004.1 0.0
15/08:30pm 27.1 28.4 19.4 62 5.0 ENE 11 13 6 7 1004.6 1004.6 0.0
15/08:00pm 27.5 28.6 19.6 62 5.1 ESE 13 17 7 9 1004.3 1004.3 0.0
15/07:30pm 27.8 29.1 19.3 60 5.5 NE 11 15 6 8 1003.6 1003.6 0.0
15/07:24pm 27.8 28.6 19.1 59 5.6 NE 13 19 7 10 1003.0 1003.0 0.0
15/07:08pm 28.4 29.1 18.8 56 6.2 NE 13 24 7 13 1001.0 1001.0 0.0
15/07:00pm 28.6 27.8 18.4 54 6.6 NE 20 32 11 17 1003.3 1003.3 0.0
15/06:55pm 28.6 27.4 18.4 54 6.5 ENE 22 32 12 17 1001.9 1001.9 0.0
15/06:44pm 29.2 28.0 18.3 51 7.0 ENE 22 33 12 18 1004.2 1004.2 0.0
15/06:37pm 29.4 27.2 18.8 53 6.8 NE 28 35 15 19 1006.2 1006.2 0.0
15/06:30pm 29.2 27.7 18.6 52 6.8 NE 24 35 13 19 1003.9 1003.9 0.0
15/06:00pm 28.6 28.1 19.0 56 6.2 ENE 20 33 11 18 1002.4 1002.4 0.0
15/05:30pm 27.8 27.5 19.1 59 5.6 ENE 19 28 10 15 1002.2 1002.2 0.0
15/05:00pm 27.8 27.0 19.3 60 5.5 ENE 22 32 12 17 1002.9 1002.9 0.0
15/04:30pm 28.3 27.1 19.2 57 5.9 ENE 24 33 13 18 1002.7 1002.7 0.0
15/04:00pm 30.1 30.6 20.1 55 6.6 ENE 17 28 9 15 1002.7 1002.7 0.0
15/03:30pm 30.5 31.3 19.8 52 7.0 ENE 15 22 8 12 1002.9 1002.9 0.0
15/03:00pm 30.5 32.1 18.2 47 7.9 ENE 7 13 4 7 1003.4 1003.4 0.0

Other formats

Comma delimited format used in spreadsheet applications
http://www.bom.gov.au/fwo/IDN60801/IDN60801.94765.axf

JavaScript Object Notation format (JSON) in row-major order
http://www.bom.gov.au/fwo/IDN60801/IDN60801.94765.json

Data quality

Most of these data are generated automatically and are frequently updated. Quality checks on data are not normally performed. It is possible for incorrect values to appear. Refer to information at About Latest Weather Observations and please check the disclaimer before using these data.